createdAt,value
2019-01-25T00:00:56.984Z,31.73
2019-01-25T00:01:56.981Z,31.73
2019-01-25T00:02:56.977Z,31.32
2019-01-25T00:03:56.954Z,32.53
2019-01-25T00:04:56.930Z,31.02
2019-01-25T00:05:56.915Z,32.03
2019-01-25T00:06:56.904Z,30.91
2019-01-25T00:07:56.984Z,31.62
2019-01-25T00:08:56.892Z,30.91
2019-01-25T00:09:58.717Z,32.13
2019-01-25T00:10:56.876Z,32.13
2019-01-25T00:11:56.863Z,31.42
2019-01-25T00:12:56.845Z,31.52
2019-01-25T00:13:56.887Z,31.93
2019-01-25T00:14:56.842Z,32.23
2019-01-25T00:15:57.026Z,32.32
2019-01-25T00:16:56.801Z,32.23
2019-01-25T00:17:56.823Z,31.82
2019-01-25T00:18:56.809Z,31.93
2019-01-25T00:19:56.920Z,32.64
2019-01-25T00:20:56.915Z,32.13
2019-01-25T00:21:56.794Z,32.43
2019-01-25T00:22:56.953Z,32.53
2019-01-25T00:23:57.060Z,32.03
2019-01-25T00:24:56.895Z,31.52
2019-01-25T00:25:56.744Z,32.11
2019-01-25T00:26:56.794Z,31.82
2019-01-25T00:27:56.699Z,32.53
2019-01-25T00:28:56.679Z,31.93
2019-01-25T00:29:56.686Z,31.82
2019-01-25T00:30:56.646Z,31.81
2019-01-25T00:31:56.639Z,31.42
2019-01-25T00:32:56.616Z,32.03
2019-01-25T00:33:56.623Z,32.33
2019-01-25T00:34:56.645Z,31.32
2019-01-25T00:35:56.591Z,32.62
2019-01-25T00:36:56.598Z,32.32
2019-01-25T00:37:56.582Z,32.11
2019-01-25T00:38:56.557Z,31.93
2019-01-25T00:39:56.596Z,32.92
2019-01-25T00:40:56.530Z,32.73
2019-01-25T00:41:56.586Z,32.13
2019-01-25T00:42:56.513Z,32.01
2019-01-25T00:43:56.502Z,32.73
2019-01-25T00:44:56.508Z,32.23
2019-01-25T00:45:56.475Z,32.52
2019-01-25T00:46:56.466Z,32.23
2019-01-25T00:47:56.544Z,32.23
2019-01-25T00:48:56.649Z,32.62
2019-01-25T00:49:56.473Z,32.52
2019-01-25T00:50:56.435Z,32.73
2019-01-25T00:51:56.432Z,32.53
2019-01-25T00:52:56.413Z,32.42
2019-01-25T00:53:56.388Z,31.71
2019-01-25T00:54:56.407Z,31.41
2019-01-25T00:55:56.365Z,32.01
2019-01-25T00:56:56.372Z,32.11
2019-01-25T00:57:56.348Z,31.41
2019-01-25T00:58:56.357Z,32.01
2019-01-25T00:59:56.368Z,32.01
2019-01-25T01:00:56.323Z,32.42
2019-01-25T01:01:56.306Z,32.42
2019-01-25T01:02:56.304Z,32.42
2019-01-25T01:03:56.276Z,32.42
2019-01-25T01:04:56.298Z,33.22
2019-01-25T01:05:56.348Z,33.43
2019-01-25T01:06:56.249Z,33.43
2019-01-25T01:07:56.241Z,33.02
2019-01-25T01:08:56.233Z,33.83
2019-01-25T01:09:56.247Z,32.64
2019-01-25T01:10:56.224Z,31.73
2019-01-25T01:11:56.202Z,31.30
2019-01-25T01:12:56.253Z,30.70
2019-01-25T01:13:56.175Z,31.10
2019-01-25T01:14:56.209Z,30.90
2019-01-25T01:15:56.153Z,30.50
2019-01-25T01:16:56.136Z,31.10
2019-01-25T01:17:56.225Z,30.60
2019-01-25T01:18:56.144Z,30.30
2019-01-25T01:19:56.201Z,30.80
2019-01-25T01:20:56.128Z,32.21
2019-01-25T01:21:56.123Z,31.00
2019-01-25T01:22:56.124Z,32.21
2019-01-25T01:23:56.107Z,31.10
2019-01-25T01:24:56.135Z,31.00
2019-01-25T01:25:56.064Z,31.41
2019-01-25T01:26:56.058Z,30.90
2019-01-25T01:27:56.016Z,31.30
2019-01-25T01:28:56.017Z,31.10
2019-01-25T01:29:56.031Z,31.41
2019-01-25T01:30:56.020Z,31.81
2019-01-25T01:31:55.987Z,31.62
2019-01-25T01:32:55.952Z,31.62
2019-01-25T01:33:55.946Z,31.51
2019-01-25T01:34:55.964Z,31.30
2019-01-25T01:35:55.939Z,31.10
2019-01-25T01:36:55.916Z,30.90
2019-01-25T01:37:55.908Z,31.10
2019-01-25T01:38:55.891Z,31.10
2019-01-25T01:39:55.916Z,31.30
2019-01-25T01:40:55.874Z,32.82
2019-01-25T01:41:55.875Z,31.42
2019-01-25T01:42:55.859Z,31.73
2019-01-25T01:43:55.846Z,31.10
2019-01-25T01:44:55.877Z,30.31
2019-01-25T01:45:55.815Z,30.90
2019-01-25T01:46:55.803Z,31.22
2019-01-25T01:47:55.792Z,30.91
2019-01-25T01:48:55.797Z,31.81
2019-01-25T01:49:55.769Z,32.13
2019-01-25T01:50:55.770Z,31.52
2019-01-25T01:51:55.752Z,31.82
2019-01-25T01:52:55.733Z,32.13
2019-01-25T01:53:55.731Z,31.93
2019-01-25T01:54:55.738Z,32.62
2019-01-25T01:55:55.724Z,32.53
2019-01-25T01:56:55.694Z,32.33
2019-01-25T01:57:55.697Z,30.91
2019-01-25T01:58:55.663Z,31.82
2019-01-25T01:59:55.656Z,31.82
2019-01-25T02:00:55.710Z,32.43
2019-01-25T02:01:55.645Z,30.71
2019-01-25T02:02:55.637Z,31.71
2019-01-25T02:03:55.630Z,32.03
2019-01-25T02:04:55.606Z,32.43
2019-01-25T02:05:55.627Z,32.21
2019-01-25T02:06:55.579Z,31.61
2019-01-25T02:07:55.571Z,32.13
2019-01-25T02:08:55.559Z,31.32
2019-01-25T02:09:55.548Z,30.90
2019-01-25T02:10:55.628Z,31.42
2019-01-25T02:11:55.525Z,31.02
2019-01-25T02:12:55.519Z,31.81
2019-01-25T02:13:55.527Z,31.71
2019-01-25T02:14:55.493Z,30.90
2019-01-25T02:15:55.513Z,31.61
2019-01-25T02:16:56.633Z,32.42
2019-01-25T02:17:55.492Z,32.33
2019-01-25T02:18:55.482Z,32.42
2019-01-25T02:19:55.476Z,32.03
2019-01-25T02:20:55.523Z,32.33
2019-01-25T02:21:55.452Z,32.13
2019-01-25T02:22:55.451Z,31.93
2019-01-25T02:23:55.448Z,32.01
2019-01-25T02:24:55.445Z,32.13
2019-01-25T02:25:55.688Z,31.73
2019-01-25T02:26:56.569Z,32.43
2019-01-25T02:27:55.353Z,32.43
2019-01-25T02:28:55.348Z,31.82
2019-01-25T02:29:55.341Z,31.22
2019-01-25T02:30:55.345Z,31.51
2019-01-25T02:31:55.299Z,31.10
2019-01-25T02:32:55.303Z,32.53
2019-01-25T02:33:55.313Z,32.82
2019-01-25T02:34:55.282Z,31.42
2019-01-25T02:35:55.289Z,31.42
2019-01-25T02:36:55.254Z,32.42
2019-01-25T02:37:55.257Z,31.32
2019-01-25T02:38:55.222Z,31.42
2019-01-25T02:39:55.216Z,31.41
2019-01-25T02:40:55.246Z,32.21
2019-01-25T02:41:55.199Z,30.60
2019-01-25T02:42:55.185Z,32.84
2019-01-25T02:43:55.171Z,32.13
2019-01-25T02:44:55.179Z,32.03
2019-01-25T02:45:55.205Z,31.73
2019-01-25T02:46:55.148Z,32.43
2019-01-25T02:47:55.165Z,32.13
2019-01-25T02:48:55.112Z,32.43
2019-01-25T02:49:55.101Z,32.03
2019-01-25T02:50:55.607Z,31.93
2019-01-25T02:51:56.574Z,32.52
2019-01-25T02:53:03.540Z,32.43
2019-01-25T02:53:55.066Z,32.43
2019-01-25T02:54:55.064Z,32.32
2019-01-25T02:55:55.043Z,32.43
2019-01-25T02:56:55.054Z,32.13
2019-01-25T02:57:55.015Z,31.51
2019-01-25T02:58:54.998Z,32.13
2019-01-25T02:59:54.992Z,32.11
2019-01-25T03:00:54.980Z,31.93
2019-01-25T03:01:54.973Z,31.51
2019-01-25T03:02:54.977Z,30.71
2019-01-25T03:03:54.949Z,32.03
2019-01-25T03:04:54.930Z,32.01
2019-01-25T03:05:54.929Z,32.23
2019-01-25T03:06:54.947Z,32.43
2019-01-25T03:07:54.921Z,31.73
2019-01-25T03:08:54.923Z,32.32
2019-01-25T03:09:54.879Z,31.32
2019-01-25T03:10:54.926Z,31.73
2019-01-25T03:11:54.910Z,31.12
2019-01-25T03:12:54.856Z,32.73
2019-01-25T03:13:54.855Z,31.82
2019-01-25T03:14:54.836Z,32.84
2019-01-25T03:15:54.832Z,32.03
2019-01-25T03:16:54.852Z,32.43
2019-01-25T03:17:54.839Z,32.03
2019-01-25T03:18:54.824Z,32.64
2019-01-25T03:19:54.818Z,32.92
2019-01-25T03:20:54.787Z,32.33
2019-01-25T03:21:54.868Z,31.22
2019-01-25T03:22:54.793Z,33.14
2019-01-25T03:23:54.764Z,31.12
2019-01-25T03:24:54.763Z,32.23
2019-01-25T03:25:54.734Z,31.52
2019-01-25T03:26:54.816Z,32.32
2019-01-25T03:27:54.704Z,31.32
2019-01-25T03:28:54.668Z,31.32
2019-01-25T03:29:54.665Z,32.42
2019-01-25T03:30:54.674Z,31.32
2019-01-25T03:31:54.687Z,31.20
2019-01-25T03:32:54.760Z,30.70
2019-01-25T03:33:54.663Z,31.91
2019-01-25T03:34:54.613Z,33.14
2019-01-25T03:35:54.598Z,31.93
2019-01-25T03:36:54.615Z,32.84
2019-01-25T03:37:54.592Z,33.14
2019-01-25T03:38:54.718Z,33.14
2019-01-25T03:39:54.563Z,33.14
2019-01-25T03:40:55.102Z,31.81
2019-01-25T03:41:54.590Z,32.93
2019-01-25T03:42:54.522Z,30.82
2019-01-25T03:43:54.507Z,31.30
2019-01-25T03:44:54.502Z,32.33
2019-01-25T03:45:54.497Z,33.34
2019-01-25T03:46:54.499Z,32.03
2019-01-25T03:47:54.465Z,32.43
2019-01-25T03:48:54.491Z,33.33
2019-01-25T03:49:54.434Z,32.23
2019-01-25T03:50:54.449Z,32.32
2019-01-25T03:51:54.443Z,33.53
2019-01-25T03:52:54.423Z,32.42
2019-01-25T03:53:54.399Z,32.82
2019-01-25T03:54:54.388Z,33.22
2019-01-25T03:55:54.380Z,32.82
2019-01-25T03:56:54.393Z,32.42
2019-01-25T03:57:54.346Z,32.42
2019-01-25T03:58:54.342Z,30.90
2019-01-25T03:59:54.342Z,30.40
2019-01-25T04:00:54.321Z,32.01
2019-01-25T04:01:54.347Z,33.33
2019-01-25T04:02:54.309Z,32.72
2019-01-25T04:03:54.290Z,30.70
2019-01-25T04:04:54.289Z,31.10
2019-01-25T04:05:54.267Z,31.71
2019-01-25T04:06:54.276Z,31.71
2019-01-25T04:07:54.240Z,31.10
2019-01-25T04:08:54.227Z,30.90
2019-01-25T04:09:54.217Z,31.61
2019-01-25T04:10:54.215Z,31.71
2019-01-25T04:11:54.259Z,32.01
2019-01-25T04:12:54.191Z,30.70
2019-01-25T04:13:54.209Z,31.81
2019-01-25T04:14:54.196Z,31.51
2019-01-25T04:15:54.157Z,31.10
2019-01-25T04:16:54.167Z,32.01
2019-01-25T04:17:54.171Z,31.51
2019-01-25T04:18:54.176Z,30.90
2019-01-25T04:19:54.144Z,32.13
2019-01-25T04:20:54.101Z,31.62
2019-01-25T04:21:54.277Z,30.19
2019-01-25T04:22:54.103Z,32.21
2019-01-25T04:23:54.108Z,31.91
2019-01-25T04:24:54.090Z,32.84
2019-01-25T04:25:54.087Z,32.62
2019-01-25T04:26:54.113Z,33.34
2019-01-25T04:27:54.017Z,32.84
2019-01-25T04:28:54.023Z,31.10
2019-01-25T04:29:53.994Z,30.21
2019-01-25T04:30:53.984Z,32.93
2019-01-25T04:31:54.006Z,32.72
2019-01-25T04:32:54.202Z,31.41
2019-01-25T04:33:53.951Z,31.71
2019-01-25T04:34:53.945Z,31.91
2019-01-25T04:35:53.939Z,31.51
2019-01-25T04:36:53.932Z,31.61
2019-01-25T04:37:53.915Z,30.90
2019-01-25T04:38:53.909Z,31.81
2019-01-25T04:39:53.886Z,32.11
2019-01-25T04:40:53.893Z,32.21
2019-01-25T04:41:53.864Z,32.01
2019-01-25T04:42:53.859Z,32.82
2019-01-25T04:43:53.854Z,31.91
2019-01-25T04:44:53.825Z,30.70
2019-01-25T04:45:53.836Z,30.90
2019-01-25T04:46:53.806Z,31.20
2019-01-25T04:47:53.831Z,30.90
2019-01-25T04:48:53.793Z,32.32
2019-01-25T04:49:53.786Z,31.10
2019-01-25T04:50:53.772Z,31.41
2019-01-25T04:51:53.764Z,32.21
2019-01-25T04:52:53.840Z,32.42
2019-01-25T04:53:53.737Z,31.41
2019-01-25T04:54:53.717Z,33.22
2019-01-25T04:55:53.715Z,32.11
2019-01-25T04:56:53.740Z,32.01
2019-01-25T04:57:53.717Z,33.12
2019-01-25T04:58:53.674Z,32.32
2019-01-25T04:59:53.661Z,31.00
2019-01-25T05:00:53.651Z,31.00
2019-01-25T05:01:53.662Z,31.91
2019-01-25T05:02:53.635Z,31.81
2019-01-25T05:03:53.618Z,32.62
2019-01-25T05:04:53.605Z,31.00
2019-01-25T05:05:53.599Z,31.20
2019-01-25T05:06:53.598Z,31.00
2019-01-25T05:07:53.628Z,32.01
2019-01-25T05:08:53.591Z,32.01
2019-01-25T05:09:53.598Z,31.71
2019-01-25T05:10:53.587Z,30.80
2019-01-25T05:11:53.536Z,31.10
2019-01-25T05:12:53.552Z,31.00
2019-01-25T05:13:53.527Z,30.30
2019-01-25T05:14:53.507Z,31.41
2019-01-25T05:15:53.495Z,31.51
2019-01-25T05:16:53.489Z,32.42
2019-01-25T05:17:53.566Z,31.61
2019-01-25T05:18:53.496Z,32.52
2019-01-25T05:19:53.473Z,32.52
2019-01-25T05:20:53.494Z,31.51
2019-01-25T05:21:53.507Z,32.21
2019-01-25T05:22:53.508Z,32.01
2019-01-25T05:23:53.452Z,31.61
2019-01-25T05:24:53.452Z,31.71
2019-01-25T05:25:53.405Z,31.41
2019-01-25T05:26:53.408Z,31.71
2019-01-25T05:27:53.374Z,31.51
2019-01-25T05:28:53.402Z,31.41
2019-01-25T05:29:53.335Z,31.81
2019-01-25T05:30:53.327Z,31.81
2019-01-25T05:31:53.312Z,32.01
2019-01-25T05:32:53.362Z,31.81
2019-01-25T05:33:53.286Z,31.00
2019-01-25T05:34:53.272Z,32.11
2019-01-25T05:35:53.268Z,32.82
2019-01-25T05:36:53.259Z,31.81
2019-01-25T05:37:53.269Z,30.90
2019-01-25T05:38:53.243Z,31.30
2019-01-25T05:39:53.223Z,32.01
2019-01-25T05:40:53.210Z,31.71
2019-01-25T05:41:53.200Z,32.52
2019-01-25T05:42:53.294Z,32.72
2019-01-25T05:43:53.778Z,31.91
2019-01-25T05:44:53.184Z,31.71
2019-01-25T05:45:53.178Z,32.42
2019-01-25T05:46:53.146Z,33.33
2019-01-25T05:47:53.162Z,33.83
2019-01-25T05:48:53.151Z,32.82
2019-01-25T05:49:53.109Z,32.11
2019-01-25T05:50:53.330Z,30.90
2019-01-25T05:51:53.120Z,30.90
2019-01-25T05:52:53.127Z,31.30
2019-01-25T05:53:53.088Z,33.43
2019-01-25T05:54:53.050Z,32.62
2019-01-25T05:55:53.045Z,32.11
2019-01-25T05:56:53.041Z,31.81
2019-01-25T05:57:53.046Z,30.90
2019-01-25T05:58:53.019Z,30.90
2019-01-25T05:59:53.013Z,29.89
2019-01-25T06:00:54.273Z,30.19
2019-01-25T06:01:52.995Z,30.40
2019-01-25T06:02:53.026Z,30.19
2019-01-25T06:03:52.960Z,30.70
2019-01-25T06:04:52.948Z,30.88
2019-01-25T06:05:53.024Z,30.09
2019-01-25T06:06:52.940Z,31.79
2019-01-25T06:07:52.932Z,31.81
2019-01-25T06:08:52.913Z,32.20
2019-01-25T06:09:52.887Z,32.81
2019-01-25T06:10:52.892Z,32.81
2019-01-25T06:11:52.866Z,32.81
2019-01-25T06:12:52.869Z,31.29
2019-01-25T06:13:52.848Z,31.48
2019-01-25T06:14:52.834Z,31.58
2019-01-25T06:15:52.823Z,32.60
2019-01-25T06:16:52.829Z,29.96
2019-01-25T06:17:52.843Z,32.18
2019-01-25T06:18:52.823Z,32.69
2019-01-25T06:19:52.794Z,32.39
2019-01-25T06:20:52.814Z,32.08
2019-01-25T06:21:52.796Z,30.87
2019-01-25T06:22:52.759Z,32.99
2019-01-25T06:23:52.804Z,31.96
2019-01-25T06:24:52.760Z,32.18
2019-01-25T06:25:52.738Z,32.69
2019-01-25T06:26:52.731Z,32.18
2019-01-25T06:27:52.698Z,32.08
2019-01-25T06:28:52.680Z,32.78
2019-01-25T06:29:52.674Z,32.27
2019-01-25T06:30:52.973Z,32.57
2019-01-25T06:31:52.650Z,32.98
2019-01-25T06:32:52.644Z,32.57
2019-01-25T06:33:52.658Z,31.96
2019-01-25T06:34:52.828Z,32.07
2019-01-25T06:35:52.692Z,33.07
2019-01-25T06:36:52.630Z,32.78
2019-01-25T06:37:52.579Z,32.87
2019-01-25T06:38:52.934Z,33.28
2019-01-25T06:39:52.562Z,32.47
2019-01-25T06:40:52.958Z,32.87
2019-01-25T06:41:52.596Z,31.87
2019-01-25T06:42:52.566Z,32.86
2019-01-25T06:43:52.510Z,34.67
2019-01-25T06:44:52.531Z,33.87
2019-01-25T06:45:52.603Z,33.56
2019-01-25T06:46:52.476Z,33.67
2019-01-25T06:47:52.476Z,33.67
2019-01-25T06:48:52.472Z,32.67
2019-01-25T06:49:52.608Z,32.96
2019-01-25T06:50:52.481Z,33.06
2019-01-25T06:51:52.420Z,33.06
2019-01-25T06:52:52.434Z,33.16
2019-01-25T06:53:52.414Z,33.16
2019-01-25T06:54:52.415Z,32.76
2019-01-25T06:55:52.392Z,32.76
2019-01-25T06:56:52.437Z,34.57
2019-01-25T06:57:52.354Z,33.18
2019-01-25T06:58:52.426Z,33.18
2019-01-25T06:59:52.469Z,35.17
2019-01-25T07:00:52.419Z,34.88
2019-01-25T07:01:52.325Z,34.69
2019-01-25T07:02:52.426Z,35.30
2019-01-25T07:03:52.437Z,35.19
2019-01-25T07:04:53.467Z,35.60
2019-01-25T07:05:53.423Z,35.70
2019-01-25T07:06:55.440Z,36.20
2019-01-25T07:07:55.425Z,35.50
2019-01-25T07:08:52.393Z,34.19
2019-01-25T07:10:04.429Z,32.98
2019-01-25T07:10:52.379Z,34.69
2019-01-25T07:11:53.375Z,33.07
2019-01-25T07:12:56.385Z,32.69
2019-01-25T07:13:52.658Z,33.39
2019-01-25T07:15:01.378Z,32.69
2019-01-25T07:15:52.319Z,33.29
2019-01-25T07:17:04.314Z,33.29
2019-01-25T07:17:55.314Z,32.99
2019-01-25T07:19:43.351Z,32.60
2019-01-25T07:19:52.272Z,32.79
2019-01-25T07:20:52.197Z,33.01
2019-01-25T07:21:52.131Z,33.11
2019-01-25T07:22:52.156Z,34.30
2019-01-25T07:23:52.115Z,33.29
2019-01-25T07:24:57.165Z,33.31
2019-01-25T07:25:52.106Z,33.41
2019-01-25T07:26:52.106Z,33.31
2019-01-25T07:27:52.083Z,33.41
2019-01-25T07:28:52.067Z,33.01
2019-01-25T07:29:52.115Z,33.31
2019-01-25T07:30:52.028Z,33.11
2019-01-25T07:31:52.091Z,33.72
2019-01-25T07:32:52.614Z,35.23
2019-01-25T07:33:52.071Z,33.61
2019-01-25T07:34:52.142Z,33.61
2019-01-25T07:35:52.009Z,35.53
2019-01-25T07:36:52.169Z,35.43
2019-01-25T07:37:51.929Z,34.72
2019-01-25T07:38:51.924Z,35.23
2019-01-25T07:39:51.925Z,33.81
2019-01-25T07:40:51.884Z,33.11
2019-01-25T07:41:58.906Z,32.90
2019-01-25T07:42:51.879Z,32.81
2019-01-25T07:43:51.856Z,32.92
2019-01-25T07:44:51.849Z,33.31
2019-01-25T07:45:52.002Z,33.41
2019-01-25T07:46:52.007Z,33.31
2019-01-25T07:47:51.831Z,33.41
2019-01-25T07:48:51.853Z,33.31
2019-01-25T07:49:51.792Z,33.33
2019-01-25T07:50:51.781Z,33.12
2019-01-25T07:51:51.772Z,33.22
2019-01-25T07:52:51.765Z,33.22
2019-01-25T07:53:51.741Z,33.33
2019-01-25T07:54:51.738Z,33.53
2019-01-25T07:55:51.752Z,34.72
2019-01-25T07:56:51.715Z,35.33
2019-01-25T07:57:51.765Z,33.21
2019-01-25T07:58:51.695Z,33.31
2019-01-25T07:59:51.736Z,33.72
2019-01-25T08:00:51.730Z,34.72
2019-01-25T08:01:51.656Z,33.61
2019-01-25T08:02:51.635Z,33.51
2019-01-25T08:03:51.657Z,34.42
2019-01-25T08:04:51.626Z,35.33
2019-01-25T08:05:51.658Z,32.89
2019-01-25T08:06:52.036Z,33.11
2019-01-25T08:07:51.618Z,33.59
2019-01-25T08:08:51.587Z,33.19
2019-01-25T08:09:51.725Z,34.41
2019-01-25T08:10:51.669Z,33.29
2019-01-25T08:11:51.647Z,33.80
2019-01-25T08:12:51.526Z,33.09
2019-01-25T08:13:51.539Z,33.09
2019-01-25T08:14:51.507Z,32.89
2019-01-25T08:15:53.091Z,33.59
2019-01-25T08:16:51.514Z,34.20
2019-01-25T08:17:52.475Z,33.39
2019-01-25T08:18:53.490Z,34.00
2019-01-25T08:19:51.566Z,33.68
2019-01-25T08:20:51.629Z,32.29
2019-01-25T08:21:51.517Z,34.20
2019-01-25T08:22:51.471Z,33.59
2019-01-25T08:23:51.703Z,32.37
2019-01-25T08:24:51.461Z,34.00
2019-01-25T08:25:51.495Z,33.50
2019-01-25T08:26:51.660Z,32.27
2019-01-25T08:27:51.670Z,32.89
2019-01-25T08:28:51.468Z,32.07
2019-01-25T08:29:51.387Z,32.79
2019-01-25T08:30:51.585Z,33.09
2019-01-25T08:31:51.381Z,32.89
2019-01-25T08:32:51.717Z,31.88
2019-01-25T08:33:51.381Z,32.39
2019-01-25T08:34:51.371Z,32.99
2019-01-25T08:35:51.365Z,31.78
2019-01-25T08:36:51.329Z,32.59
2019-01-25T08:37:51.311Z,32.89
2019-01-25T08:38:51.270Z,33.70
2019-01-25T08:39:51.294Z,33.70
2019-01-25T08:40:51.320Z,33.90
2019-01-25T08:41:51.299Z,35.21
2019-01-25T08:42:51.259Z,33.51
2019-01-25T08:43:51.261Z,34.70
2019-01-25T08:44:51.202Z,35.21
2019-01-25T08:45:51.218Z,35.23
2019-01-25T08:46:51.294Z,36.13
2019-01-25T08:47:51.139Z,35.03
2019-01-25T08:48:51.194Z,35.53
2019-01-25T08:49:57.602Z,35.53
2019-01-25T08:50:51.185Z,35.93
2019-01-25T08:51:51.124Z,36.54
2019-01-25T08:52:51.139Z,36.54
2019-01-25T08:53:51.089Z,34.72
2019-01-25T08:54:51.071Z,35.41
2019-01-25T08:55:51.196Z,37.23
2019-01-25T08:56:51.227Z,34.72
2019-01-25T08:57:51.059Z,35.01
2019-01-25T08:58:51.027Z,35.31
2019-01-25T08:59:51.012Z,34.81
2019-01-25T09:00:51.914Z,35.21
2019-01-25T09:01:50.997Z,33.50
2019-01-25T09:02:50.999Z,35.03
2019-01-25T09:03:50.977Z,36.54
2019-01-25T09:04:50.958Z,35.73
2019-01-25T09:05:51.091Z,35.13
2019-01-25T09:06:50.937Z,33.81
2019-01-25T09:07:50.984Z,33.01
2019-01-25T09:08:50.990Z,33.21
2019-01-25T09:09:51.846Z,33.51
2019-01-25T09:10:50.921Z,33.31
2019-01-25T09:11:50.978Z,33.41
2019-01-25T09:12:50.866Z,33.39
2019-01-25T09:13:50.897Z,35.82
2019-01-25T09:14:50.845Z,36.24
2019-01-25T09:15:50.862Z,36.74
2019-01-25T09:16:50.894Z,35.23
2019-01-25T09:17:51.086Z,35.52
2019-01-25T09:18:50.860Z,35.72
2019-01-25T09:19:52.065Z,35.21
2019-01-25T09:20:50.917Z,35.72
2019-01-25T09:21:50.866Z,36.72
2019-01-25T09:22:50.802Z,35.93
2019-01-25T09:23:50.798Z,35.72
2019-01-25T09:24:50.787Z,35.61
2019-01-25T09:25:50.772Z,34.30
2019-01-25T09:26:50.720Z,34.50
2019-01-25T09:27:50.774Z,34.50
2019-01-25T09:28:50.747Z,34.61
2019-01-25T09:29:50.728Z,34.81
2019-01-25T09:30:50.756Z,36.72
2019-01-25T09:31:50.758Z,36.72
2019-01-25T09:32:50.646Z,35.50
2019-01-25T09:33:50.640Z,35.82
2019-01-25T09:34:50.650Z,36.32
2019-01-25T09:35:50.620Z,35.52
2019-01-25T09:36:50.747Z,36.82
2019-01-25T09:37:50.672Z,36.91
2019-01-25T09:38:50.600Z,36.62
2019-01-25T09:39:50.627Z,36.82
2019-01-25T09:40:50.562Z,39.13
2019-01-25T09:41:50.587Z,37.31
2019-01-25T09:42:50.560Z,38.82
2019-01-25T09:43:50.563Z,37.21
2019-01-25T09:44:50.556Z,38.12
2019-01-25T09:45:50.568Z,36.69
2019-01-25T09:46:50.616Z,37.40
2019-01-25T09:47:50.803Z,36.39
2019-01-25T09:48:50.511Z,37.29
2019-01-25T09:49:50.585Z,37.40
2019-01-25T09:50:52.959Z,36.89
2019-01-25T09:51:50.531Z,36.99
2019-01-25T09:52:50.630Z,36.49
2019-01-25T09:53:50.622Z,36.79
2019-01-25T09:54:50.602Z,37.18
2019-01-25T09:55:50.632Z,36.39
2019-01-25T09:56:51.030Z,38.50
2019-01-25T09:57:50.523Z,36.89
2019-01-25T09:58:50.861Z,35.17
2019-01-25T09:59:50.757Z,36.69
2019-01-25T10:00:50.548Z,35.78
2019-01-25T10:01:50.908Z,37.19
2019-01-25T10:02:50.597Z,36.79
2019-01-25T10:03:51.476Z,36.49
2019-01-25T10:04:50.571Z,35.99
2019-01-25T10:05:50.648Z,35.78
2019-01-25T10:06:50.666Z,37.70
2019-01-25T10:07:50.908Z,37.40
2019-01-25T10:08:50.623Z,37.70
2019-01-25T10:09:50.273Z,36.79
2019-01-25T10:10:50.237Z,36.98
2019-01-25T10:11:50.254Z,36.49
2019-01-25T10:12:50.257Z,39.19
2019-01-25T10:13:50.202Z,36.77
2019-01-25T10:14:50.228Z,36.37
2019-01-25T10:15:50.215Z,37.27
2019-01-25T10:16:50.267Z,37.98
2019-01-25T10:17:50.210Z,36.67
2019-01-25T10:18:50.192Z,36.76
2019-01-25T10:19:50.175Z,34.44
2019-01-25T10:20:50.258Z,35.66
2019-01-25T10:21:50.621Z,35.46
2019-01-25T10:22:50.144Z,36.98
2019-01-25T10:23:50.128Z,35.46
2019-01-25T10:24:50.104Z,35.26
2019-01-25T10:25:50.129Z,36.47
2019-01-25T10:26:50.330Z,36.67
2019-01-25T10:27:50.081Z,36.86
2019-01-25T10:28:50.081Z,36.37
2019-01-25T10:29:50.100Z,36.46
2019-01-25T10:30:50.071Z,36.67
2019-01-25T10:31:50.498Z,35.57
2019-01-25T10:32:50.077Z,35.16
2019-01-25T10:33:50.133Z,35.35
2019-01-25T10:34:50.263Z,36.47
2019-01-25T10:35:50.103Z,35.05
2019-01-25T10:36:50.264Z,37.48
2019-01-25T10:37:50.209Z,35.35
2019-01-25T10:38:50.150Z,35.77
2019-01-25T10:39:49.921Z,35.05
2019-01-25T10:40:49.899Z,35.46
2019-01-25T10:41:49.885Z,35.57
2019-01-25T10:42:53.202Z,36.25
2019-01-25T10:43:50.598Z,35.57
2019-01-25T10:44:49.879Z,35.35
2019-01-25T10:45:49.867Z,35.65
2019-01-25T10:46:49.829Z,36.55
2019-01-25T10:47:49.857Z,35.46
2019-01-25T10:48:49.939Z,34.74
2019-01-25T10:49:49.801Z,36.05
2019-01-25T10:50:49.798Z,35.25
2019-01-25T10:51:50.777Z,37.56
2019-01-25T10:52:49.809Z,36.35
2019-01-25T10:53:49.781Z,36.86
2019-01-25T10:54:49.751Z,36.15
2019-01-25T10:55:49.728Z,36.76
2019-01-25T10:56:49.728Z,36.46
2019-01-25T10:57:50.053Z,38.05
2019-01-25T10:58:49.725Z,36.64
2019-01-25T10:59:49.694Z,37.85
2019-01-25T11:00:51.344Z,36.74
2019-01-25T11:01:49.681Z,37.24
2019-01-25T11:02:49.701Z,37.23
2019-01-25T11:03:49.657Z,37.43
2019-01-25T11:04:49.632Z,36.52
2019-01-25T11:05:49.628Z,37.93
2019-01-25T11:06:49.630Z,36.50
2019-01-25T11:07:49.629Z,37.71
2019-01-25T11:08:49.752Z,37.01
2019-01-25T11:09:49.593Z,37.30
2019-01-25T11:10:49.574Z,37.41
2019-01-25T11:11:49.590Z,37.10
2019-01-25T11:12:49.692Z,37.30
2019-01-25T11:13:49.583Z,37.10
2019-01-25T11:14:49.537Z,36.89
2019-01-25T11:15:49.521Z,36.79
2019-01-25T11:16:49.525Z,36.89
2019-01-25T11:17:49.590Z,37.29
2019-01-25T11:18:49.509Z,37.08
2019-01-25T11:19:49.536Z,37.69
2019-01-25T11:20:49.484Z,37.69
2019-01-25T11:21:49.502Z,37.79
2019-01-25T11:22:49.775Z,36.36
2019-01-25T11:23:49.470Z,35.08
2019-01-25T11:24:49.833Z,35.16
2019-01-25T11:25:49.451Z,36.38
2019-01-25T11:26:49.441Z,36.18
2019-01-25T11:27:49.480Z,35.58
2019-01-25T11:28:49.387Z,35.06
2019-01-25T11:29:49.430Z,35.86
2019-01-25T11:30:49.375Z,35.77
2019-01-25T11:31:49.458Z,35.46
2019-01-25T11:32:55.463Z,35.26
2019-01-25T11:33:50.602Z,36.27
2019-01-25T11:34:50.389Z,34.76
2019-01-25T11:35:50.664Z,35.46
2019-01-25T11:36:50.838Z,35.36
2019-01-25T11:37:51.033Z,33.25
2019-01-25T11:38:51.649Z,34.46
2019-01-25T11:39:50.796Z,34.36
2019-01-25T11:40:49.232Z,33.65
2019-01-25T11:41:49.242Z,33.55
2019-01-25T11:42:49.215Z,33.36
2019-01-25T11:43:49.291Z,34.76
2019-01-25T11:44:51.284Z,34.36
2019-01-25T11:45:49.195Z,34.86
2019-01-25T11:46:49.171Z,34.96
2019-01-25T11:47:49.381Z,34.26
2019-01-25T11:48:49.202Z,35.26
2019-01-25T11:49:50.206Z,34.66
2019-01-25T11:50:49.146Z,35.06
2019-01-25T11:51:49.219Z,34.86
2019-01-25T11:52:49.098Z,35.06
2019-01-25T11:53:49.130Z,34.46
2019-01-25T11:54:50.462Z,35.06
2019-01-25T11:55:49.068Z,34.86
2019-01-25T11:56:49.070Z,35.97
2019-01-25T11:57:49.134Z,35.06
2019-01-25T11:58:49.165Z,35.05
2019-01-25T11:59:49.030Z,35.26
2019-01-25T12:00:49.052Z,36.47
2019-01-25T12:01:49.024Z,34.96
2019-01-25T12:02:49.060Z,35.05
2019-01-25T12:03:48.997Z,36.95
2019-01-25T12:04:48.990Z,36.67
2019-01-25T12:05:48.971Z,35.46
2019-01-25T12:06:48.943Z,36.36
2019-01-25T12:07:48.934Z,34.86
2019-01-25T12:08:48.981Z,35.26
2019-01-25T12:09:48.912Z,35.06
2019-01-25T12:10:48.902Z,34.36
2019-01-25T12:11:48.930Z,33.36
2019-01-25T12:12:48.943Z,33.36
2019-01-25T12:13:49.026Z,34.66
2019-01-25T12:14:48.955Z,35.46
2019-01-25T12:15:48.864Z,34.66
2019-01-25T12:16:48.908Z,34.56
2019-01-25T12:17:48.897Z,35.16
2019-01-25T12:18:48.865Z,35.46
2019-01-25T12:19:48.897Z,35.44
2019-01-25T12:20:48.860Z,35.05
2019-01-25T12:21:48.854Z,34.94
2019-01-25T12:22:50.638Z,34.84
2019-01-25T12:23:48.840Z,34.84
2019-01-25T12:24:48.839Z,33.23
2019-01-25T12:25:48.806Z,34.84
2019-01-25T12:26:48.791Z,33.34
2019-01-25T12:27:48.751Z,33.14
2019-01-25T12:28:49.117Z,32.62
2019-01-25T12:29:48.745Z,32.12
2019-01-25T12:30:50.740Z,33.22
2019-01-25T12:31:48.727Z,32.62
2019-01-25T12:32:48.674Z,32.62
2019-01-25T12:33:48.678Z,32.50
2019-01-25T12:34:48.725Z,32.00
2019-01-25T12:35:48.642Z,33.40
2019-01-25T12:36:48.684Z,31.90
2019-01-25T12:37:48.632Z,32.50
2019-01-25T12:38:48.611Z,33.31
2019-01-25T12:39:49.216Z,32.50
2019-01-25T12:40:48.603Z,33.31
2019-01-25T12:41:48.593Z,33.20
2019-01-25T12:42:48.574Z,34.21
2019-01-25T12:43:48.542Z,34.41
2019-01-25T12:44:48.568Z,34.41
2019-01-25T12:45:50.322Z,35.21
2019-01-25T12:46:48.522Z,34.61
2019-01-25T12:47:48.888Z,33.51
2019-01-25T12:48:48.491Z,33.51
2019-01-25T12:49:48.547Z,33.20
2019-01-25T12:50:49.126Z,33.91
2019-01-25T12:51:48.467Z,33.51
2019-01-25T12:52:48.479Z,33.81